Time;durP1;ratioP1;P1;durP2;ratioP2;P2;SDS_P1;SDS_P2;PMS_P1;PMS_P2;Temp;Humidity;BMP_temperature;BMP_pressure;BME280_temperature;BME280_humidity;BME280_pressure;Samples;Min_cycle;Max_cycle;Signal;HPM_P1;HPM_P2
2021/12/05 00:24:13;;;;;;;2.78;0.60;;;;;;;;;;7385012;19;20029;-79
2021/12/05 00:26:35;;;;;;;;;;;;;;;;;;7385607;19;20326;-77
2021/12/05 00:29:10;;;;;;;2.08;0.65;;;;;;;;;;7384228;19;19910;-77
2021/12/05 00:37:43;;;;;;;1.98;0.95;;;;;;;;;;7385886;19;20019;-77
2021/12/05 00:40:24;;;;;;;1.17;0.75;;;;;;;;;;7382679;19;20017;-77
2021/12/05 00:55:32;;;;;;;3.80;0.45;;;;;;;;;;7384417;19;20011;-78
2021/12/05 01:16:25;;;;;;;3.95;0.60;;;;;;;;;;7382649;19;20108;-77
2021/12/05 01:18:51;;;;;;;0.73;0.30;;;;;;;;;;7389430;19;20066;-78
2021/12/05 01:21:19;;;;;;;3.30;0.65;;;;;;;;;;7388986;19;20002;-78
2021/12/05 01:23:59;;;;;;;1.33;0.52;;;;;;;;;;7391939;19;20025;-78
2021/12/05 01:26:29;;;;;;;0.32;0.30;;;;;;;;;;7389418;19;20002;-77
2021/12/05 01:29:19;;;;;;;0.68;0.40;;;;;;;;;;7388794;19;20509;-76
2021/12/05 01:42:32;;;;;;;2.55;0.50;;;;;;;;;;7389033;19;20011;-76
2021/12/05 01:45:28;;;;;;;0.75;0.30;;;;;;;;;;7390071;19;20017;-77
2021/12/05 01:48:29;;;;;;;2.45;0.60;;;;;;;;;;7391061;19;20419;-77
2021/12/05 02:12:05;;;;;;;2.40;0.30;;;;;;;;;;7390663;19;20041;-76
2021/12/05 02:34:06;;;;;;;0.85;0.40;;;;;;;;;;7389657;19;20102;-76
2021/12/05 02:41:44;;;;;;;1.13;0.35;;;;;;;;;;7385980;19;20707;-77
2021/12/05 02:44:20;;;;;;;0.63;0.20;;;;;;;;;;7390460;19;20040;-78
2021/12/05 02:46:58;;;;;;;1.95;0.40;;;;;;;;;;7387902;19;20115;-76
2021/12/05 02:49:25;;;;;;;0.80;0.35;;;;;;;;;;7388763;19;20461;-76
2021/12/05 02:51:55;;;;;;;0.38;0.38;;;;;;;;;;7385750;19;20090;-76
2021/12/05 02:54:24;;;;;;;0.50;0.38;;;;;;;;;;7385020;19;20011;-75
2021/12/05 02:56:52;;;;;;;1.52;0.38;;;;;;;;;;7387616;19;20114;-76
2021/12/05 03:01:48;;;;;;;0.52;0.30;;;;;;;;;;7382278;19;20043;-76
2021/12/05 03:04:13;;;;;;;1.42;0.40;;;;;;;;;;7389676;19;20010;-76
2021/12/05 03:06:49;;;;;;;0.28;0.20;;;;;;;;;;7379210;19;20608;-76
2021/12/05 03:09:15;;;;;;;1.85;0.40;;;;;;;;;;7385984;19;20372;-76
2021/12/05 03:11:40;;;;;;;0.38;0.30;;;;;;;;;;7384797;19;20789;-76
2021/12/05 03:14:07;;;;;;;0.70;0.20;;;;;;;;;;7388155;19;20002;-77
2021/12/05 03:16:34;;;;;;;0.77;0.20;;;;;;;;;;7385165;19;20011;-76
2021/12/05 03:18:59;;;;;;;0.60;0.60;;;;;;;;;;7383530;19;20002;-77
2021/12/05 03:21:25;;;;;;;1.55;0.40;;;;;;;;;;7384351;19;20379;-76
2021/12/05 03:23:51;;;;;;;1.73;0.20;;;;;;;;;;7388534;19;20445;-76
2021/12/05 03:26:22;;;;;;;0.93;0.45;;;;;;;;;;7391684;19;20386;-77
2021/12/05 03:28:49;;;;;;;1.40;0.40;;;;;;;;;;7388157;19;20054;-76
2021/12/05 03:31:15;;;;;;;2.50;0.75;;;;;;;;;;7388211;19;20013;-77
2021/12/05 03:33:41;;;;;;;1.17;0.32;;;;;;;;;;7390645;19;20370;-76
2021/12/05 03:36:09;;;;;;;1.10;1.00;;;;;;;;;;7385942;19;20002;-76
2021/12/05 03:38:36;;;;;;;1.08;0.43;;;;;;;;;;7381201;19;20025;-76
2021/12/05 03:41:02;;;;;;;0.45;0.45;;;;;;;;;;7384231;19;20027;-76
2021/12/05 03:43:28;;;;;;;0.90;0.20;;;;;;;;;;7384373;19;19999;-76
2021/12/05 03:45:56;;;;;;;0.50;0.30;;;;;;;;;;7385292;19;20027;-78
2021/12/05 03:48:24;;;;;;;1.08;0.50;;;;;;;;;;7386361;19;20426;-77
2021/12/05 03:50:49;;;;;;;0.75;0.30;;;;;;;;;;7386513;19;20088;-77
2021/12/05 03:53:17;;;;;;;1.00;0.47;;;;;;;;;;7385816;19;20002;-76
2021/12/05 03:55:46;;;;;;;0.10;0.10;;;;;;;;;;7381808;19;20011;-76
2021/12/05 03:58:12;;;;;;;0.50;0.30;;;;;;;;;;7385319;19;20568;-76
2021/12/05 04:00:40;;;;;;;0.75;0.20;;;;;;;;;;7383481;19;20014;-76
2021/12/05 04:03:08;;;;;;;0.50;0.22;;;;;;;;;;7384569;19;20077;-76
2021/12/05 04:05:34;;;;;;;5.10;0.40;;;;;;;;;;7385145;19;20003;-76
2021/12/05 04:08:01;;;;;;;0.95;0.43;;;;;;;;;;7382470;19;20007;-76
2021/12/05 04:10:28;;;;;;;1.45;0.28;;;;;;;;;;7383479;19;20030;-76
2021/12/05 04:12:54;;;;;;;1.98;0.30;;;;;;;;;;7384348;19;20058;-76
2021/12/05 04:15:20;;;;;;;1.38;0.30;;;;;;;;;;7382149;19;20675;-76
2021/12/05 04:17:46;;;;;;;1.13;0.30;;;;;;;;;;7385348;19;20007;-76
2021/12/05 04:20:14;;;;;;;1.23;0.35;;;;;;;;;;7383042;19;20017;-76
2021/12/05 04:22:41;;;;;;;1.88;0.30;;;;;;;;;;7384610;19;19998;-76
2021/12/05 04:25:10;;;;;;;2.35;0.43;;;;;;;;;;7384232;19;20011;-76
2021/12/05 04:27:37;;;;;;;0.43;0.30;;;;;;;;;;7384743;19;19999;-76
2021/12/05 04:30:05;;;;;;;1.55;0.22;;;;;;;;;;7381110;19;20025;-76
2021/12/05 04:32:30;;;;;;;0.85;0.50;;;;;;;;;;7384483;19;20006;-76
2021/12/05 04:34:55;;;;;;;2.13;0.30;;;;;;;;;;7384083;19;20429;-77
2021/12/05 04:37:21;;;;;;;1.05;0.30;;;;;;;;;;7385832;19;20334;-76
2021/12/05 04:39:47;;;;;;;2.95;0.40;;;;;;;;;;7384768;19;20444;-76
2021/12/05 04:42:14;;;;;;;1.80;0.45;;;;;;;;;;7381707;19;20005;-76
2021/12/05 04:44:40;;;;;;;2.85;0.47;;;;;;;;;;7385731;19;20010;-77
2021/12/05 04:47:05;;;;;;;2.38;0.50;;;;;;;;;;7384701;19;20014;-76
2021/12/05 04:49:31;;;;;;;1.92;0.40;;;;;;;;;;7384556;19;20007;-76
2021/12/05 04:51:57;;;;;;;3.80;0.98;;;;;;;;;;7381486;19;20010;-76
2021/12/05 04:54:23;;;;;;;1.75;0.70;;;;;;;;;;7383523;19;20007;-77
2021/12/05 04:56:49;;;;;;;1.25;0.40;;;;;;;;;;7385583;19;20029;-77
2021/12/05 04:59:17;;;;;;;1.10;0.40;;;;;;;;;;7386278;19;20003;-77
2021/12/05 05:01:46;;;;;;;0.73;0.40;;;;;;;;;;7382882;19;20031;-76
2021/12/05 05:04:22;;;;;;;0.20;0.20;;;;;;;;;;7385377;19;20112;-77
2021/12/05 05:06:48;;;;;;;1.17;0.30;;;;;;;;;;7383843;19;20453;-77
2021/12/05 05:09:14;;;;;;;1.15;0.55;;;;;;;;;;7382249;19;20070;-75
2021/12/05 05:11:41;;;;;;;1.77;0.25;;;;;;;;;;7382656;19;20119;-78
2021/12/05 05:14:07;;;;;;;2.28;0.50;;;;;;;;;;7384725;19;20093;-78
2021/12/05 05:16:33;;;;;;;2.75;0.40;;;;;;;;;;7383970;19;20006;-76
2021/12/05 05:19:00;;;;;;;3.85;0.65;;;;;;;;;;7384359;19;20067;-77
2021/12/05 05:27:01;;;;;;;0.98;0.63;;;;;;;;;;7381454;19;20086;-75
2021/12/05 05:46:03;;;;;;;0.73;0.40;;;;;;;;;;7388797;19;19948;-77
2021/12/05 05:48:36;;;;;;;0.13;0.13;;;;;;;;;;7389495;19;20006;-75
2021/12/05 05:51:03;;;;;;;1.95;0.47;;;;;;;;;;7387771;19;20016;-77
2021/12/05 05:53:29;;;;;;;1.92;0.40;;;;;;;;;;7390390;19;19999;-77
2021/12/05 05:55:56;;;;;;;1.42;0.28;;;;;;;;;;7390780;19;20464;-77
2021/12/05 05:58:27;;;;;;;2.70;0.52;;;;;;;;;;7392068;19;20023;-77
2021/12/05 06:01:01;;;;;;;0.68;0.40;;;;;;;;;;7389653;19;20007;-77
2021/12/05 06:03:26;;;;;;;0.75;0.50;;;;;;;;;;7390404;19;20485;-76
2021/12/05 06:05:56;;;;;;;0.82;0.50;;;;;;;;;;7389388;19;20003;-76
2021/12/05 06:08:24;;;;;;;2.05;0.50;;;;;;;;;;7390372;19;20466;-76
2021/12/05 06:10:50;;;;;;;2.65;0.55;;;;;;;;;;7388372;19;20494;-76
2021/12/05 06:13:18;;;;;;;2.00;0.98;;;;;;;;;;7389218;19;20011;-76
2021/12/05 06:15:44;;;;;;;3.83;0.73;;;;;;;;;;7389004;19;20010;-76
2021/12/05 06:18:09;;;;;;;1.13;0.40;;;;;;;;;;7389862;19;20037;-76
2021/12/05 06:20:34;;;;;;;0.98;0.35;;;;;;;;;;7387331;19;20018;-76
2021/12/05 06:23:00;;;;;;;2.50;0.65;;;;;;;;;;7389467;19;20441;-75
2021/12/05 06:25:30;;;;;;;1.52;0.50;;;;;;;;;;7389770;19;20010;-74
2021/12/05 06:27:59;;;;;;;2.05;1.17;;;;;;;;;;7391973;19;20032;-73
2021/12/05 06:30:34;;;;;;;1.42;0.40;;;;;;;;;;7384468;19;20478;-72
2021/12/05 06:41:05;;;;;;;1.75;0.82;;;;;;;;;;7387262;19;20331;-72
2021/12/05 06:46:12;;;;;;;1.38;0.90;;;;;;;;;;7387082;19;20002;-73
2021/12/05 06:48:43;;;;;;;2.88;0.68;;;;;;;;;;7385683;19;20504;-72
2021/12/05 06:51:12;;;;;;;3.35;0.63;;;;;;;;;;7386898;19;20003;-73
2021/12/05 06:53:38;;;;;;;2.92;0.73;;;;;;;;;;7388417;19;20014;-73
2021/12/05 06:56:05;;;;;;;1.05;0.70;;;;;;;;;;7386632;19;20044;-72
2021/12/05 06:58:32;;;;;;;2.40;0.80;;;;;;;;;;7387566;19;20066;-73
2021/12/05 07:00:59;;;;;;;1.60;0.70;;;;;;;;;;7387248;19;20018;-72
2021/12/05 07:03:24;;;;;;;1.48;0.68;;;;;;;;;;7387498;19;20465;-73
2021/12/05 07:06:03;;;;;;;0.75;0.45;;;;;;;;;;7385260;19;20010;-71
2021/12/05 07:08:35;;;;;;;2.60;0.57;;;;;;;;;;7381697;19;20014;-73
2021/12/05 07:11:09;;;;;;;1.23;0.47;;;;;;;;;;7385955;19;20034;-73
2021/12/05 07:18:49;;;;;;;3.22;0.90;;;;;;;;;;7386159;19;20339;-73
2021/12/05 07:26:16;;;;;;;1.45;1.23;;;;;;;;;;7385836;19;20015;-72
2021/12/05 07:42:24;;;;;;;2.53;0.80;;;;;;;;;;7383404;19;20013;-72
2021/12/05 07:44:52;;;;;;;3.05;1.42;;;;;;;;;;7387534;19;20449;-73
2021/12/05 07:47:20;;;;;;;1.40;0.90;;;;;;;;;;7386042;19;20002;-71
2021/12/05 07:49:49;;;;;;;3.30;1.00;;;;;;;;;;7385278;19;20015;-73
2021/12/05 07:52:20;;;;;;;1.13;0.68;;;;;;;;;;7386612;19;20485;-73
2021/12/05 07:54:51;;;;;;;2.72;1.00;;;;;;;;;;7381895;19;20023;-73
2021/12/05 07:57:28;;;;;;;3.10;1.00;;;;;;;;;;7388668;19;20020;-72
2021/12/05 08:00:12;;;;;;;1.73;0.63;;;;;;;;;;7384460;19;20010;-73
2021/12/05 08:16:28;;;;;;;1.17;0.82;;;;;;;;;;7384113;19;20024;-73
2021/12/05 08:18:54;;;;;;;7.55;3.05;;;;;;;;;;7382529;19;20478;-72
2021/12/05 08:21:20;;;;;;;4.78;1.23;;;;;;;;;;7384026;19;20014;-72
2021/12/05 08:23:48;;;;;;;3.08;0.93;;;;;;;;;;7385072;19;20006;-72
2021/12/05 08:26:19;;;;;;;3.17;0.95;;;;;;;;;;7385784;19;20030;-72
2021/12/05 08:31:32;;;;;;;3.83;1.10;;;;;;;;;;7383621;19;20010;-73
2021/12/05 09:26:24;;;;;;;1.98;0.88;;;;;;;;;;7392752;19;20014;-72
2021/12/05 10:14:49;;;;;;;2.15;0.90;;;;;;;;;;7389774;19;20092;-70
2021/12/05 10:26:38;;;;;;;2.17;1.30;;;;;;;;;;7390940;19;20023;-71
2021/12/05 10:40:55;;;;;;;3.22;0.95;;;;;;;;;;7381795;19;20041;-71
2021/12/05 10:43:24;;;;;;;1.42;1.00;;;;;;;;;;7388299;19;20003;-71
2021/12/05 10:45:53;;;;;;;2.47;0.80;;;;;;;;;;7388616;19;20062;-71
2021/12/05 10:48:26;;;;;;;2.40;0.77;;;;;;;;;;7384765;19;19998;-71
2021/12/05 10:51:13;;;;;;;3.10;0.85;;;;;;;;;;7385771;19;20032;-71
2021/12/05 10:53:43;;;;;;;2.92;1.10;;;;;;;;;;7388931;19;20003;-71
2021/12/05 10:56:24;;;;;;;1.45;0.85;;;;;;;;;;7385528;19;20018;-71
2021/12/05 10:58:52;;;;;;;4.95;1.58;;;;;;;;;;7388733;19;19994;-71
2021/12/05 11:01:29;;;;;;;1.83;0.98;;;;;;;;;;7387119;19;20007;-71
2021/12/05 11:04:01;;;;;;;2.05;1.15;;;;;;;;;;7211658;19;3009490;-71
2021/12/05 11:06:37;;;;;;;2.70;0.90;;;;;;;;;;7386143;19;20022;-71
2021/12/05 11:09:15;;;;;;;2.85;1.20;;;;;;;;;;7387858;19;20115;-72
2021/12/05 11:11:43;;;;;;;1.35;0.80;;;;;;;;;;7387303;19;20006;-71
2021/12/05 11:14:21;;;;;;;1.55;0.93;;;;;;;;;;7386537;19;20493;-71
2021/12/05 11:16:49;;;;;;;3.03;1.48;;;;;;;;;;7385204;19;20051;-71
2021/12/05 11:19:21;;;;;;;4.15;0.70;;;;;;;;;;7387426;19;20014;-71
2021/12/05 11:21:52;;;;;;;3.38;0.93;;;;;;;;;;7378130;19;20010;-71
2021/12/05 11:24:23;;;;;;;4.63;1.83;;;;;;;;;;7374978;19;20500;-71
2021/12/05 11:27:04;;;;;;;4.90;1.90;;;;;;;;;;7382644;19;20022;-71
2021/12/05 11:29:40;;;;;;;2.33;1.00;;;;;;;;;;7381433;19;20010;-70
2021/12/05 11:32:10;;;;;;;1.98;1.08;;;;;;;;;;7381914;19;20324;-73
2021/12/05 11:34:36;;;;;;;2.20;0.88;;;;;;;;;;7373174;19;20013;-71
2021/12/05 11:37:01;;;;;;;3.80;0.93;;;;;;;;;;7374610;19;20010;-71
2021/12/05 11:39:27;;;;;;;3.25;0.65;;;;;;;;;;7380026;19;20431;-71
2021/12/05 11:41:52;;;;;;;3.42;0.73;;;;;;;;;;7378666;19;20024;-71
2021/12/05 11:44:21;;;;;;;3.25;0.85;;;;;;;;;;7378992;19;20023;-71
2021/12/05 11:46:47;;;;;;;0.95;0.60;;;;;;;;;;7376029;19;20025;-71
2021/12/05 11:49:21;;;;;;;2.03;0.70;;;;;;;;;;7379186;19;20022;-70
2021/12/05 11:51:52;;;;;;;2.60;1.20;;;;;;;;;;7380773;19;20010;-71
2021/12/05 11:54:27;;;;;;;2.83;1.02;;;;;;;;;;7376935;19;20496;-71
2021/12/05 11:57:04;;;;;;;1.00;0.50;;;;;;;;;;7372041;19;20052;-71
2021/12/05 11:59:33;;;;;;;1.48;0.68;;;;;;;;;;7376900;19;20010;-71
2021/12/05 12:02:05;;;;;;;3.53;0.85;;;;;;;;;;7378015;19;20003;-71
2021/12/05 12:04:37;;;;;;;2.20;0.68;;;;;;;;;;7376698;19;20006;-71
2021/12/05 12:07:37;;;;;;;2.92;0.90;;;;;;;;;;7376245;19;20013;-71
2021/12/05 12:10:29;;;;;;;1.00;0.60;;;;;;;;;;7376093;19;20414;-71
2021/12/05 12:13:08;;;;;;;2.40;0.77;;;;;;;;;;7380026;19;20049;-71
2021/12/05 12:15:34;;;;;;;3.58;0.85;;;;;;;;;;7379227;19;20007;-71
2021/12/05 12:18:10;;;;;;;1.40;0.85;;;;;;;;;;7379891;19;20924;-71
2021/12/05 12:20:38;;;;;;;3.03;1.00;;;;;;;;;;7378490;19;20027;-71
2021/12/05 12:23:04;;;;;;;2.13;0.80;;;;;;;;;;7379910;19;20469;-71
2021/12/05 12:25:34;;;;;;;2.45;0.80;;;;;;;;;;7381250;19;20023;-71
2021/12/05 12:28:02;;;;;;;2.25;0.90;;;;;;;;;;7376166;19;21563;-72
2021/12/05 12:30:31;;;;;;;1.58;0.90;;;;;;;;;;7373338;19;20550;-71
2021/12/05 12:33:03;;;;;;;2.90;1.13;;;;;;;;;;7378705;19;20119;-71
2021/12/05 12:35:30;;;;;;;2.20;0.80;;;;;;;;;;7376284;19;20487;-71
2021/12/05 12:38:00;;;;;;;2.47;0.55;;;;;;;;;;7380305;19;20743;-71
2021/12/05 12:40:46;;;;;;;5.32;1.38;;;;;;;;;;7376266;19;20626;-71
2021/12/05 12:43:39;;;;;;;5.72;1.40;;;;;;;;;;7382154;19;20034;-71
2021/12/05 12:46:18;;;;;;;4.80;1.33;;;;;;;;;;7383724;19;20018;-70
2021/12/05 12:48:44;;;;;;;1.95;1.02;;;;;;;;;;7383871;19;20002;-71
2021/12/05 12:51:29;;;;;;;0.95;0.70;;;;;;;;;;7382240;19;20020;-71
2021/12/05 12:54:03;;;;;;;4.30;1.48;;;;;;;;;;7393041;19;20073;-70
2021/12/05 12:56:29;;;;;;;1.33;0.45;;;;;;;;;;7386662;19;20367;-71
2021/12/05 12:59:02;;;;;;;2.15;0.60;;;;;;;;;;7387825;19;20002;-71
2021/12/05 13:10:06;;;;;;;12.07;3.90;;;;;;;;;;7391321;19;20006;-73
2021/12/05 13:12:37;;;;;;;5.95;1.48;;;;;;;;;;7392799;19;20006;-71
2021/12/05 13:15:09;;;;;;;11.25;1.45;;;;;;;;;;7391440;19;20006;-71
2021/12/05 13:18:32;;;;;;;4.13;0.80;;;;;;;;;;7414190;19;20409;-71
2021/12/05 13:21:09;;;;;;;3.47;1.70;;;;;;;;;;7416473;19;20022;-70
2021/12/05 13:23:42;;;;;;;2.97;1.00;;;;;;;;;;7417094;19;20014;-73
2021/12/05 13:26:27;;;;;;;1.90;1.20;;;;;;;;;;7416098;19;20265;-69
2021/12/05 13:29:11;;;;;;;7.50;4.43;;;;;;;;;;7416725;19;20074;-68
2021/12/05 13:31:41;;;;;;;6.45;1.60;;;;;;;;;;7413876;19;20017;-68
2021/12/05 13:34:29;;;;;;;3.22;1.95;;;;;;;;;;7417204;19;20011;-68
2021/12/05 13:36:58;;;;;;;6.75;2.17;;;;;;;;;;7368013;19;20014;-68
2021/12/05 13:39:45;;;;;;;6.05;1.80;;;;;;;;;;7406376;19;20092;-68
2021/12/05 13:42:16;;;;;;;2.15;1.58;;;;;;;;;;7404740;19;20028;-68
2021/12/05 13:44:59;;;;;;;8.88;2.30;;;;;;;;;;7413193;19;20018;-68
2021/12/05 13:47:31;;;;;;;3.75;1.70;;;;;;;;;;7414822;19;20010;-68
2021/12/05 13:50:18;;;;;;;5.45;2.47;;;;;;;;;;7411965;19;20315;-68
2021/12/05 13:53:07;;;;;;;7.32;3.60;;;;;;;;;;7412731;19;20043;-68
2021/12/05 13:55:53;;;;;;;10.55;4.85;;;;;;;;;;7410399;19;20366;-68
2021/12/05 13:58:31;;;;;;;4.28;1.90;;;;;;;;;;7410764;19;20029;-68
2021/12/05 14:01:35;;;;;;;5.45;1.90;;;;;;;;;;7406880;19;20118;-68
2021/12/05 14:04:16;;;;;;;3.72;1.70;;;;;;;;;;7411102;19;20524;-68
2021/12/05 14:07:04;;;;;;;4.57;2.40;;;;;;;;;;7413718;19;20467;-68
2021/12/05 14:09:30;;;;;;;4.38;2.33;;;;;;;;;;7410503;19;20658;-68
2021/12/05 14:11:59;;;;;;;4.22;1.65;;;;;;;;;;7409453;19;20423;-68
2021/12/05 14:14:28;;;;;;;2.58;1.33;;;;;;;;;;7409975;19;20840;-68
2021/12/05 14:16:56;;;;;;;9.23;3.33;;;;;;;;;;7413025;19;20006;-68
2021/12/05 14:19:27;;;;;;;4.05;1.83;;;;;;;;;;7412540;19;20066;-68
2021/12/05 14:21:55;;;;;;;4.53;1.30;;;;;;;;;;7407767;19;20013;-68
2021/12/05 14:24:24;;;;;;;2.72;1.35;;;;;;;;;;7412163;19;19994;-67
2021/12/05 14:26:52;;;;;;;4.10;1.70;;;;;;;;;;7410226;19;20022;-68
2021/12/05 14:29:22;;;;;;;2.20;0.93;;;;;;;;;;7387042;19;20035;-68
2021/12/05 14:32:04;;;;;;;4.38;1.30;;;;;;;;;;7381304;19;20452;-68
2021/12/05 14:34:30;;;;;;;7.13;1.73;;;;;;;;;;7379232;19;20002;-68
2021/12/05 14:37:17;;;;;;;3.05;1.70;;;;;;;;;;7380017;19;20010;-67
2021/12/05 14:39:52;;;;;;;3.33;1.20;;;;;;;;;;7380614;19;20386;-68
2021/12/05 14:42:20;;;;;;;3.78;1.38;;;;;;;;;;7378146;19;20013;-68
2021/12/05 14:44:50;;;;;;;5.05;1.50;;;;;;;;;;7381830;19;20048;-70
2021/12/05 14:47:17;;;;;;;1.73;1.20;;;;;;;;;;7381689;19;20081;-68
2021/12/05 14:49:46;;;;;;;4.22;1.10;;;;;;;;;;7381186;19;20014;-68
2021/12/05 14:52:19;;;;;;;5.45;0.95;;;;;;;;;;7381618;19;20837;-68
2021/12/05 14:54:45;;;;;;;1.10;0.90;;;;;;;;;;7381810;19;20381;-68
2021/12/05 14:57:21;;;;;;;2.05;0.75;;;;;;;;;;7380736;19;20014;-68
2021/12/05 14:59:48;;;;;;;2.05;0.57;;;;;;;;;;7377742;19;20010;-70
2021/12/05 15:02:16;;;;;;;3.08;0.60;;;;;;;;;;7381414;19;20011;-69
2021/12/05 15:04:45;;;;;;;1.40;0.75;;;;;;;;;;7381644;19;20011;-69
2021/12/05 15:07:12;;;;;;;3.65;2.03;;;;;;;;;;7380397;19;20034;-69
2021/12/05 15:09:43;;;;;;;4.00;1.88;;;;;;;;;;7377427;19;20100;-69
2021/12/05 15:12:18;;;;;;;18.45;9.02;;;;;;;;;;7378241;19;20124;-69
2021/12/05 15:14:45;;;;;;;6.40;3.05;;;;;;;;;;7379167;19;20337;-69
2021/12/05 15:17:15;;;;;;;4.35;2.20;;;;;;;;;;7381372;19;20339;-69
2021/12/05 15:19:45;;;;;;;3.65;1.77;;;;;;;;;;7380716;19;20744;-68
2021/12/05 15:22:12;;;;;;;9.05;3.85;;;;;;;;;;7381028;19;20018;-71
2021/12/05 15:24:39;;;;;;;3.17;1.80;;;;;;;;;;7383090;19;20031;-68
2021/12/05 15:27:12;;;;;;;3.83;1.42;;;;;;;;;;7382759;19;20031;-68
2021/12/05 15:29:38;;;;;;;1.98;0.80;;;;;;;;;;7381896;19;20027;-68
2021/12/05 15:32:03;;;;;;;6.65;1.50;;;;;;;;;;7379177;19;20011;-69
2021/12/05 15:34:35;;;;;;;4.10;1.55;;;;;;;;;;7379642;19;20563;-70
2021/12/05 15:37:08;;;;;;;5.22;1.90;;;;;;;;;;7375974;19;20021;-70
2021/12/05 15:39:34;;;;;;;2.65;1.08;;;;;;;;;;7383939;19;20022;-70
2021/12/05 15:41:59;;;;;;;2.97;0.90;;;;;;;;;;7379602;19;20517;-71
2021/12/05 15:44:33;;;;;;;2.75;0.80;;;;;;;;;;7386741;19;20003;-75
2021/12/05 15:47:07;;;;;;;17.23;6.40;;;;;;;;;;7386265;19;20010;-72
2021/12/05 15:49:51;;;;;;;33.55;12.80;;;;;;;;;;7379403;19;20010;-73
2021/12/05 15:52:19;;;;;;;12.63;5.13;;;;;;;;;;7386854;19;20014;-73
2021/12/05 15:54:45;;;;;;;9.27;3.45;;;;;;;;;;7384073;19;20037;-72
2021/12/05 15:57:23;;;;;;;3.65;1.80;;;;;;;;;;7381981;19;20010;-72
2021/12/05 15:59:49;;;;;;;3.13;1.65;;;;;;;;;;7382613;19;20010;-73
2021/12/05 16:02:17;;;;;;;3.40;1.63;;;;;;;;;;7384956;19;19999;-73
2021/12/05 16:04:43;;;;;;;2.72;1.35;;;;;;;;;;7383496;19;20018;-73
2021/12/05 16:07:10;;;;;;;4.88;1.65;;;;;;;;;;7384900;19;20422;-73
2021/12/05 16:09:41;;;;;;;4.60;1.88;;;;;;;;;;7382691;19;20013;-72
2021/12/05 16:12:11;;;;;;;4.05;2.08;;;;;;;;;;7385668;19;20007;-73
2021/12/05 16:14:42;;;;;;;8.85;1.77;;;;;;;;;;7384339;19;20014;-72
2021/12/05 16:17:16;;;;;;;6.32;2.30;;;;;;;;;;7382199;19;20010;-72
2021/12/05 16:20:21;;;;;;;2.85;1.70;;;;;;;;;;7382360;19;20006;-73
2021/12/05 16:23:05;;;;;;;5.55;2.53;;;;;;;;;;7385213;19;20006;-72
2021/12/05 16:25:31;;;;;;;10.90;3.97;;;;;;;;;;7384023;19;20556;-73
2021/12/05 16:28:01;;;;;;;6.22;3.55;;;;;;;;;;7382826;19;20035;-72
2021/12/05 16:30:31;;;;;;;8.50;4.30;;;;;;;;;;7384917;19;20023;-73
2021/12/05 16:32:58;;;;;;;10.32;5.43;;;;;;;;;;7386219;19;20015;-73
2021/12/05 16:35:27;;;;;;;10.95;5.03;;;;;;;;;;7385360;19;20010;-72
2021/12/05 16:37:53;;;;;;;4.53;2.60;;;;;;;;;;7384628;19;20011;-72
2021/12/05 16:40:18;;;;;;;7.60;2.72;;;;;;;;;;7379799;19;20334;-72
2021/12/05 16:42:44;;;;;;;4.50;2.55;;;;;;;;;;7385608;19;20010;-73
2021/12/05 16:45:11;;;;;;;5.25;2.33;;;;;;;;;;7385297;19;20002;-72
2021/12/05 16:47:37;;;;;;;3.90;1.15;;;;;;;;;;7384098;19;20055;-72
2021/12/05 16:50:05;;;;;;;5.32;1.65;;;;;;;;;;7382317;19;21867;-72
2021/12/05 16:52:42;;;;;;;2.63;1.10;;;;;;;;;;7380297;19;20010;-71
2021/12/05 16:55:22;;;;;;;2.33;1.23;;;;;;;;;;7379923;19;20011;-72
2021/12/05 16:57:57;;;;;;;3.17;1.42;;;;;;;;;;7381337;19;20487;-72
2021/12/05 17:00:27;;;;;;;6.63;2.47;;;;;;;;;;7380318;19;20124;-72
2021/12/05 17:02:56;;;;;;;5.55;2.58;;;;;;;;;;7383210;19;20111;-71
2021/12/05 17:05:44;;;;;;;3.42;1.23;;;;;;;;;;7382720;19;20319;-72
2021/12/05 17:08:14;;;;;;;4.40;1.50;;;;;;;;;;7377633;19;20403;-72
2021/12/05 17:10:39;;;;;;;4.00;1.30;;;;;;;;;;7384358;19;20015;-72
2021/12/05 17:13:07;;;;;;;5.07;1.60;;;;;;;;;;7381365;19;20418;-72
2021/12/05 17:15:34;;;;;;;6.07;1.48;;;;;;;;;;7382631;19;20318;-73
2021/12/05 17:18:03;;;;;;;3.97;1.17;;;;;;;;;;7380973;19;20070;-72
2021/12/05 17:20:32;;;;;;;1.77;1.15;;;;;;;;;;7381910;19;20002;-72
2021/12/05 17:23:10;;;;;;;2.60;1.85;;;;;;;;;;7348921;19;20014;-72
2021/12/05 17:25:40;;;;;;;2.55;1.63;;;;;;;;;;7382628;19;20003;-72
2021/12/05 17:28:09;;;;;;;3.80;1.98;;;;;;;;;;7381997;19;20014;-71
2021/12/05 17:30:35;;;;;;;8.10;2.63;;;;;;;;;;7377317;19;20003;-72
2021/12/05 17:33:00;;;;;;;8.13;3.10;;;;;;;;;;7351690;19;20002;-72
2021/12/05 17:35:29;;;;;;;6.60;3.28;;;;;;;;;;7380107;19;19999;-73
2021/12/05 17:37:55;;;;;;;4.75;2.10;;;;;;;;;;7383022;19;20010;-73
2021/12/05 17:40:21;;;;;;;10.10;3.47;;;;;;;;;;7380588;19;20021;-72
2021/12/05 17:42:47;;;;;;;9.75;3.00;;;;;;;;;;7380674;19;20062;-73
2021/12/05 17:45:14;;;;;;;6.95;3.33;;;;;;;;;;7374397;19;20032;-72
2021/12/05 17:47:40;;;;;;;5.38;2.65;;;;;;;;;;7382863;19;20013;-72
2021/12/05 17:50:20;;;;;;;8.05;3.65;;;;;;;;;;7379732;19;20006;-73
2021/12/05 17:52:47;;;;;;;7.47;4.07;;;;;;;;;;7382384;19;20360;-71
2021/12/05 17:55:19;;;;;;;10.98;3.97;;;;;;;;;;7343235;19;20086;-72
2021/12/05 17:57:58;;;;;;;9.30;4.18;;;;;;;;;;7381701;19;20405;-70
2021/12/05 18:00:38;;;;;;;12.55;4.47;;;;;;;;;;7377687;19;20013;-70
2021/12/05 18:03:07;;;;;;;5.45;2.97;;;;;;;;;;7378989;19;20014;-70
2021/12/05 18:05:39;;;;;;;7.15;3.47;;;;;;;;;;7389253;19;20009;-70
2021/12/05 18:08:10;;;;;;;7.80;2.85;;;;;;;;;;7390205;19;20006;-69
2021/12/05 18:10:38;;;;;;;3.28;1.83;;;;;;;;;;7390523;19;20091;-70
2021/12/05 18:13:06;;;;;;;9.95;5.72;;;;;;;;;;7388177;19;20494;-70
2021/12/05 18:15:35;;;;;;;3.53;1.73;;;;;;;;;;7388442;19;20206;-70
2021/12/05 18:18:02;;;;;;;1.00;0.90;;;;;;;;;;7384925;19;20192;-70
2021/12/05 18:20:31;;;;;;;1.52;0.90;;;;;;;;;;7386712;19;20003;-70
2021/12/05 18:23:00;;;;;;;2.40;0.88;;;;;;;;;;7387094;19;20050;-69
2021/12/05 18:25:28;;;;;;;1.15;1.00;;;;;;;;;;7384934;19;20007;-69
2021/12/05 18:27:53;;;;;;;0.77;0.70;;;;;;;;;;7386451;19;20010;-69
2021/12/05 18:30:22;;;;;;;1.23;0.73;;;;;;;;;;7375296;19;20027;-70
2021/12/05 18:32:49;;;;;;;1.95;1.00;;;;;;;;;;7385199;19;20421;-71
2021/12/05 18:35:17;;;;;;;1.90;1.13;;;;;;;;;;7383107;19;20014;-69
2021/12/05 18:37:44;;;;;;;1.00;1.00;;;;;;;;;;7381149;19;20095;-69
2021/12/05 18:40:11;;;;;;;0.70;0.70;;;;;;;;;;7381670;19;20018;-69
2021/12/05 18:42:36;;;;;;;0.82;0.80;;;;;;;;;;7388635;19;20021;-69
2021/12/05 18:45:05;;;;;;;0.45;0.45;;;;;;;;;;7384171;19;20014;-69
2021/12/05 18:47:31;;;;;;;1.05;0.90;;;;;;;;;;7388965;19;20015;-69
2021/12/05 18:49:58;;;;;;;1.83;1.30;;;;;;;;;;7386723;19;20093;-69
2021/12/05 18:52:25;;;;;;;1.33;0.90;;;;;;;;;;7386466;19;20111;-69
2021/12/05 18:54:52;;;;;;;2.10;1.00;;;;;;;;;;7380154;19;20015;-69
2021/12/05 18:57:22;;;;;;;13.52;5.53;;;;;;;;;;7384018;19;20007;-69
2021/12/05 18:59:58;;;;;;;2.35;1.10;;;;;;;;;;7377794;19;20046;-69
2021/12/05 19:05:11;;;;;;;1.58;0.70;;;;;;;;;;7378858;19;20553;-69
2021/12/05 19:07:47;;;;;;;1.08;0.98;;;;;;;;;;7380943;19;20021;-69
2021/12/05 19:12:57;;;;;;;1.90;1.15;;;;;;;;;;7378819;19;20467;-69
2021/12/05 19:15:23;;;;;;;0.68;0.60;;;;;;;;;;7375640;19;20022;-69
2021/12/05 19:17:49;;;;;;;2.00;1.00;;;;;;;;;;7373199;19;20002;-69
2021/12/05 19:20:22;;;;;;;2.17;0.57;;;;;;;;;;7380333;19;20007;-69
2021/12/05 19:22:49;;;;;;;0.85;0.60;;;;;;;;;;7378856;19;20018;-69
2021/12/05 19:25:21;;;;;;;0.60;0.50;;;;;;;;;;7378082;19;20006;-71
2021/12/05 19:27:49;;;;;;;1.60;1.10;;;;;;;;;;7380856;19;20011;-69
2021/12/05 19:30:21;;;;;;;5.90;2.97;;;;;;;;;;7381387;19;20012;-71
2021/12/05 19:32:47;;;;;;;2.67;1.67;;;;;;;;;;7385447;19;20028;-68
2021/12/05 19:35:13;;;;;;;3.60;2.10;;;;;;;;;;7385287;19;20023;-69
2021/12/05 19:37:42;;;;;;;1.30;1.15;;;;;;;;;;7383703;19;20078;-69
2021/12/05 19:40:09;;;;;;;2.08;1.20;;;;;;;;;;7383468;19;20007;-69
2021/12/05 19:42:35;;;;;;;0.82;0.60;;;;;;;;;;7385203;19;20011;-69
2021/12/05 19:45:00;;;;;;;0.68;0.57;;;;;;;;;;7384262;19;21022;-71
2021/12/05 19:47:26;;;;;;;0.95;0.80;;;;;;;;;;7386167;19;20006;-69
2021/12/05 19:49:52;;;;;;;1.60;1.00;;;;;;;;;;7382146;19;20031;-68
2021/12/05 19:52:19;;;;;;;2.55;1.50;;;;;;;;;;7386442;19;20007;-68
2021/12/05 19:54:47;;;;;;;5.30;2.92;;;;;;;;;;7386593;19;20007;-69
2021/12/05 19:57:12;;;;;;;5.72;2.15;;;;;;;;;;7381652;19;20051;-68
2021/12/05 19:59:38;;;;;;;4.35;2.05;;;;;;;;;;7384088;19;20448;-68
2021/12/05 20:02:04;;;;;;;4.30;1.65;;;;;;;;;;7383661;19;20010;-69
2021/12/05 20:04:29;;;;;;;4.32;1.98;;;;;;;;;;7381502;19;20492;-69
2021/12/05 20:06:55;;;;;;;2.05;1.33;;;;;;;;;;7380835;19;20505;-68
2021/12/05 20:09:21;;;;;;;27.75;12.30;;;;;;;;;;7385993;19;20420;-69
2021/12/05 20:11:48;;;;;;;10.50;4.80;;;;;;;;;;7383151;19;20003;-69
2021/12/05 20:14:14;;;;;;;6.50;3.10;;;;;;;;;;7380111;19;20851;-69
2021/12/05 20:16:40;;;;;;;3.67;1.65;;;;;;;;;;7382038;19;20006;-69
2021/12/05 20:19:07;;;;;;;2.40;1.20;;;;;;;;;;7384765;19;20027;-69
2021/12/05 20:21:39;;;;;;;2.83;1.17;;;;;;;;;;7378955;19;20298;-69
2021/12/05 20:24:05;;;;;;;2.47;1.45;;;;;;;;;;7386198;19;20325;-69
2021/12/05 20:26:31;;;;;;;1.00;0.90;;;;;;;;;;7384816;19;20006;-69
2021/12/05 20:28:56;;;;;;;2.35;1.30;;;;;;;;;;7380725;19;20010;-69